sensor_id;sensor_type;location;lat;lon;timestamp;pressure;altitude;pressure_sealevel;temperature;humidity
19789;BME280;10054;59.332;18.244;2023-01-25T00:01:06;101844.67;;;3.81;100.00
19789;BME280;10054;59.332;18.244;2023-01-25T00:03:34;101852.44;;;3.86;100.00
19789;BME280;10054;59.332;18.244;2023-01-25T00:06:03;101844.14;;;3.88;100.00
19789;BME280;10054;59.332;18.244;2023-01-25T00:08:32;101849.38;;;3.86;100.00
19789;BME280;10054;59.332;18.244;2023-01-25T00:11:01;101845.00;;;3.88;100.00
19789;BME280;10054;59.332;18.244;2023-01-25T00:13:30;101847.14;;;3.90;100.00
19789;BME280;10054;59.332;18.244;2023-01-25T00:16:03;101842.36;;;3.90;100.00
19789;BME280;10054;59.332;18.244;2023-01-25T00:18:32;101833.65;;;3.91;100.00
19789;BME280;10054;59.332;18.244;2023-01-25T00:21:18;101834.48;;;3.93;100.00
19789;BME280;10054;59.332;18.244;2023-01-25T00:23:42;101827.91;;;3.96;100.00
19789;BME280;10054;59.332;18.244;2023-01-25T00:26:11;101827.49;;;3.95;100.00
19789;BME280;10054;59.332;18.244;2023-01-25T00:28:40;101819.24;;;3.94;100.00
19789;BME280;10054;59.332;18.244;2023-01-25T00:31:10;101821.83;;;3.95;100.00
19789;BME280;10054;59.332;18.244;2023-01-25T00:33:49;101823.11;;;3.97;100.00
19789;BME280;10054;59.332;18.244;2023-01-25T00:38:57;101808.36;;;3.94;100.00
19789;BME280;10054;59.332;18.244;2023-01-25T00:41:26;101807.45;;;3.97;100.00
19789;BME280;10054;59.332;18.244;2023-01-25T00:43:55;101807.45;;;3.97;100.00
19789;BME280;10054;59.332;18.244;2023-01-25T00:46:24;101796.56;;;3.98;100.00
19789;BME280;10054;59.332;18.244;2023-01-25T00:48:53;101796.12;;;3.98;100.00
19789;BME280;10054;59.332;18.244;2023-01-25T00:51:23;101796.92;;;4.02;100.00
19789;BME280;10054;59.332;18.244;2023-01-25T00:53:52;101785.20;;;4.00;100.00
19789;BME280;10054;59.332;18.244;2023-01-25T00:56:21;101783.89;;;4.00;100.00
19789;BME280;10054;59.332;18.244;2023-01-25T00:58:50;101778.23;;;4.01;100.00
19789;BME280;10054;59.332;18.244;2023-01-25T01:01:19;101787.32;;;4.04;100.00
19789;BME280;10054;59.332;18.244;2023-01-25T01:03:50;101779.91;;;4.05;100.00
19789;BME280;10054;59.332;18.244;2023-01-25T01:06:19;101773.82;;;4.04;100.00
19789;BME280;10054;59.332;18.244;2023-01-25T01:08:48;101768.55;;;4.07;100.00
19789;BME280;10054;59.332;18.244;2023-01-25T01:11:16;101765.05;;;4.08;100.00
19789;BME280;10054;59.332;18.244;2023-01-25T01:13:45;101761.99;;;4.09;100.00
19789;BME280;10054;59.332;18.244;2023-01-25T01:16:14;101755.02;;;4.09;100.00
19789;BME280;10054;59.332;18.244;2023-01-25T01:18:45;101757.13;;;4.13;100.00
19789;BME280;10054;59.332;18.244;2023-01-25T01:21:14;101751.88;;;4.14;100.00
19789;BME280;10054;59.332;18.244;2023-01-25T01:23:46;101740.12;;;4.14;100.00
19789;BME280;10054;59.332;18.244;2023-01-25T01:26:17;101734.88;;;4.16;100.00
19789;BME280;10054;59.332;18.244;2023-01-25T01:28:49;101728.30;;;4.19;100.00
19789;BME280;10054;59.332;18.244;2023-01-25T01:31:21;101728.33;;;4.17;100.00
19789;BME280;10054;59.332;18.244;2023-01-25T01:33:53;101719.21;;;4.16;100.00
19789;BME280;10054;59.332;18.244;2023-01-25T01:36:26;101716.57;;;4.17;100.00
19789;BME280;10054;59.332;18.244;2023-01-25T01:38:56;101716.45;;;4.23;100.00
19789;BME280;10054;59.332;18.244;2023-01-25T01:41:25;101714.70;;;4.24;100.00
19789;BME280;10054;59.332;18.244;2023-01-25T01:43:54;101718.20;;;4.23;100.00
19789;BME280;10054;59.332;18.244;2023-01-25T01:46:38;101715.13;;;4.25;100.00
19789;BME280;10054;59.332;18.244;2023-01-25T01:49:25;101712.04;;;4.27;100.00
19789;BME280;10054;59.332;18.244;2023-01-25T01:52:06;101705.51;;;4.27;100.00
19789;BME280;10054;59.332;18.244;2023-01-25T01:54:40;101698.09;;;4.28;100.00
19789;BME280;10054;59.332;18.244;2023-01-25T01:57:15;101696.31;;;4.30;100.00
19789;BME280;10054;59.332;18.244;2023-01-25T01:59:49;101688.95;;;4.28;100.00
19789;BME280;10054;59.332;18.244;2023-01-25T02:02:18;101692.00;;;4.27;100.00
19789;BME280;10054;59.332;18.244;2023-01-25T02:04:48;101692.83;;;4.29;100.00
19789;BME280;10054;59.332;18.244;2023-01-25T02:07:22;101688.86;;;4.33;100.00
19789;BME280;10054;59.332;18.244;2023-01-25T02:09:52;101691.89;;;4.34;100.00
19789;BME280;10054;59.332;18.244;2023-01-25T02:12:22;101682.33;;;4.33;100.00
19789;BME280;10054;59.332;18.244;2023-01-25T02:14:53;101676.63;;;4.35;100.00
19789;BME280;10054;59.332;18.244;2023-01-25T02:17:36;101670.52;;;4.36;100.00
19789;BME280;10054;59.332;18.244;2023-01-25T02:22:43;101666.59;;;4.36;100.00
19789;BME280;10054;59.332;18.244;2023-01-25T02:25:11;101671.31;;;4.39;100.00
19789;BME280;10054;59.332;18.244;2023-01-25T02:27:46;101668.25;;;4.40;100.00
19789;BME280;10054;59.332;18.244;2023-01-25T02:30:15;101665.23;;;4.39;100.00
19789;BME280;10054;59.332;18.244;2023-01-25T02:32:44;101663.47;;;4.39;100.00
19789;BME280;10054;59.332;18.244;2023-01-25T02:37:55;101667.39;;;4.39;100.00
19789;BME280;10054;59.332;18.244;2023-01-25T02:40:23;101663.03;;;4.40;100.00
19789;BME280;10054;59.332;18.244;2023-01-25T02:42:52;101659.49;;;4.42;100.00
19789;BME280;10054;59.332;18.244;2023-01-25T02:45:23;101648.62;;;4.41;100.00
19789;BME280;10054;59.332;18.244;2023-01-25T02:47:53;101647.32;;;4.41;100.00
19789;BME280;10054;59.332;18.244;2023-01-25T02:50:21;101644.33;;;4.39;100.00
19789;BME280;10054;59.332;18.244;2023-01-25T02:52:50;101648.59;;;4.43;100.00
19789;BME280;10054;59.332;18.244;2023-01-25T02:55:19;101642.52;;;4.42;100.00
19789;BME280;10054;59.332;18.244;2023-01-25T02:57:48;101641.20;;;4.42;100.00
19789;BME280;10054;59.332;18.244;2023-01-25T03:00:17;101635.09;;;4.43;100.00
19789;BME280;10054;59.332;18.244;2023-01-25T03:02:46;101628.08;;;4.45;100.00
19789;BME280;10054;59.332;18.244;2023-01-25T03:05:16;101617.66;;;4.44;100.00
19789;BME280;10054;59.332;18.244;2023-01-25T03:07:45;101622.88;;;4.44;100.00
19789;BME280;10054;59.332;18.244;2023-01-25T03:10:15;101626.77;;;4.45;100.00
19789;BME280;10054;59.332;18.244;2023-01-25T03:12:44;101618.01;;;4.46;100.00
19789;BME280;10054;59.332;18.244;2023-01-25T03:15:14;101620.23;;;4.45;100.00
19789;BME280;10054;59.332;18.244;2023-01-25T03:17:43;101613.23;;;4.46;100.00
19789;BME280;10054;59.332;18.244;2023-01-25T03:20:12;101606.59;;;4.50;100.00
19789;BME280;10054;59.332;18.244;2023-01-25T03:22:41;101606.16;;;4.51;100.00
19789;BME280;10054;59.332;18.244;2023-01-25T03:25:10;101610.52;;;4.50;100.00
19789;BME280;10054;59.332;18.244;2023-01-25T03:27:41;101601.78;;;4.51;100.00
19789;BME280;10054;59.332;18.244;2023-01-25T03:30:11;101607.88;;;4.52;100.00
19789;BME280;10054;59.332;18.244;2023-01-25T03:32:40;101598.34;;;4.49;100.00
19789;BME280;10054;59.332;18.244;2023-01-25T03:35:11;101597.04;;;4.49;100.00
19789;BME280;10054;59.332;18.244;2023-01-25T03:37:40;101590.03;;;4.51;100.00
19789;BME280;10054;59.332;18.244;2023-01-25T03:40:10;101571.70;;;4.53;100.00
19789;BME280;10054;59.332;18.244;2023-01-25T03:42:40;101573.48;;;4.51;100.00
19789;BME280;10054;59.332;18.244;2023-01-25T03:45:10;101562.59;;;4.51;100.00
19789;BME280;10054;59.332;18.244;2023-01-25T03:47:41;101564.69;;;4.55;100.00
19789;BME280;10054;59.332;18.244;2023-01-25T03:50:10;101553.75;;;4.57;100.00
19789;BME280;10054;59.332;18.244;2023-01-25T03:52:39;101559.88;;;4.56;100.00
19789;BME280;10054;59.332;18.244;2023-01-25T03:55:09;101548.53;;;4.57;100.00
19789;BME280;10054;59.332;18.244;2023-01-25T03:57:40;101545.44;;;4.59;100.00
19789;BME280;10054;59.332;18.244;2023-01-25T04:00:09;101547.16;;;4.60;100.00
19789;BME280;10054;59.332;18.244;2023-01-25T04:02:47;101546.36;;;4.56;100.00
19789;BME280;10054;59.332;18.244;2023-01-25T04:05:17;101538.94;;;4.57;100.00
19789;BME280;10054;59.332;18.244;2023-01-25T04:07:47;101539.28;;;4.61;100.00
19789;BME280;10054;59.332;18.244;2023-01-25T04:10:17;101537.56;;;4.60;100.00
19789;BME280;10054;59.332;18.244;2023-01-25T04:12:46;101529.75;;;4.59;100.00
19789;BME280;10054;59.332;18.244;2023-01-25T04:15:16;101515.76;;;4.61;100.00
19789;BME280;10054;59.332;18.244;2023-01-25T04:17:45;101510.91;;;4.64;100.00
19789;BME280;10054;59.332;18.244;2023-01-25T04:20:18;101511.39;;;4.62;100.00
19789;BME280;10054;59.332;18.244;2023-01-25T04:22:46;101507.95;;;4.60;100.00
19789;BME280;10054;59.332;18.244;2023-01-25T04:25:16;101502.24;;;4.62;100.00
19789;BME280;10054;59.332;18.244;2023-01-25T04:27:46;101507.02;;;4.62;100.00
19789;BME280;10054;59.332;18.244;2023-01-25T04:30:16;101501.77;;;4.64;100.00
19789;BME280;10054;59.332;18.244;2023-01-25T04:32:46;101493.84;;;4.67;100.00
19789;BME280;10054;59.332;18.244;2023-01-25T04:35:17;101494.67;;;4.69;100.00
19789;BME280;10054;59.332;18.244;2023-01-25T04:37:57;101495.53;;;4.70;100.00
19789;BME280;10054;59.332;18.244;2023-01-25T04:40:28;101491.27;;;4.66;100.00
19789;BME280;10054;59.332;18.244;2023-01-25T04:42:57;101487.34;;;4.66;100.00
19789;BME280;10054;59.332;18.244;2023-01-25T04:45:26;101481.59;;;4.69;100.00
19789;BME280;10054;59.332;18.244;2023-01-25T04:47:57;101485.56;;;4.68;100.00
19789;BME280;10054;59.332;18.244;2023-01-25T04:50:27;101483.88;;;4.65;100.00
19789;BME280;10054;59.332;18.244;2023-01-25T04:52:56;101475.96;;;4.68;100.00
19789;BME280;10054;59.332;18.244;2023-01-25T04:55:25;101471.11;;;4.71;100.00
19789;BME280;10054;59.332;18.244;2023-01-25T04:57:54;101467.19;;;4.71;100.00
19789;BME280;10054;59.332;18.244;2023-01-25T05:00:23;101475.06;;;4.69;100.00
19789;BME280;10054;59.332;18.244;2023-01-25T05:02:52;101481.97;;;4.72;100.00
19789;BME280;10054;59.332;18.244;2023-01-25T05:05:22;101478.84;;;4.75;100.00
19789;BME280;10054;59.332;18.244;2023-01-25T05:07:51;101481.90;;;4.75;100.00
19789;BME280;10054;59.332;18.244;2023-01-25T05:10:20;101473.20;;;4.74;100.00
19789;BME280;10054;59.332;18.244;2023-01-25T05:12:56;101470.09;;;4.76;100.00
19789;BME280;10054;59.332;18.244;2023-01-25T05:15:25;101470.51;;;4.77;100.00
19789;BME280;10054;59.332;18.244;2023-01-25T05:17:54;101463.97;;;4.77;100.00
19789;BME280;10054;59.332;18.244;2023-01-25T05:20:23;101471.81;;;4.77;100.00
19789;BME280;10054;59.332;18.244;2023-01-25T05:22:51;101460.87;;;4.79;100.00
19789;BME280;10054;59.332;18.244;2023-01-25T05:25:21;101460.42;;;4.80;100.00
19789;BME280;10054;59.332;18.244;2023-01-25T05:28:09;101462.62;;;4.79;100.00
19789;BME280;10054;59.332;18.244;2023-01-25T05:30:42;101454.70;;;4.82;100.00
19789;BME280;10054;59.332;18.244;2023-01-25T05:33:13;101461.61;;;4.84;100.00
19789;BME280;10054;59.332;18.244;2023-01-25T05:35:43;101458.14;;;4.84;100.00
19789;BME280;10054;59.332;18.244;2023-01-25T05:38:12;101453.41;;;4.82;100.00
19789;BME280;10054;59.332;18.244;2023-01-25T05:40:42;101461.61;;;4.84;100.00
19789;BME280;10054;59.332;18.244;2023-01-25T05:43:11;101459.00;;;4.84;100.00
19789;BME280;10054;59.332;18.244;2023-01-25T05:45:40;101451.23;;;4.81;100.00
19789;BME280;10054;59.332;18.244;2023-01-25T05:48:09;101443.36;;;4.83;100.00
19789;BME280;10054;59.332;18.244;2023-01-25T05:50:38;101452.02;;;4.85;100.00
19789;BME280;10054;59.332;18.244;2023-01-25T05:53:09;101447.23;;;4.84;100.00
19789;BME280;10054;59.332;18.244;2023-01-25T05:55:40;101442.50;;;4.82;100.00
19789;BME280;10054;59.332;18.244;2023-01-25T05:58:10;101443.31;;;4.84;100.00
19789;BME280;10054;59.332;18.244;2023-01-25T06:00:39;101445.85;;;4.87;100.00
19789;BME280;10054;59.332;18.244;2023-01-25T06:03:09;101445.89;;;4.86;100.00
19789;BME280;10054;59.332;18.244;2023-01-25T06:05:39;101442.45;;;4.84;100.00
19789;BME280;10054;59.332;18.244;2023-01-25T06:08:08;101434.98;;;4.86;100.00
19789;BME280;10054;59.332;18.244;2023-01-25T06:10:44;101442.79;;;4.88;100.00
19789;BME280;10054;59.332;18.244;2023-01-25T06:13:13;101427.63;;;4.84;100.00
19789;BME280;10054;59.332;18.244;2023-01-25T06:15:50;101431.96;;;4.85;100.00
19789;BME280;10054;59.332;18.244;2023-01-25T06:18:20;101426.69;;;4.87;100.00
19789;BME280;10054;59.332;18.244;2023-01-25T06:20:59;101418.41;;;4.87;100.00
19789;BME280;10054;59.332;18.244;2023-01-25T06:23:29;101415.83;;;4.86;100.00
19789;BME280;10054;59.332;18.244;2023-01-25T06:25:59;101419.30;;;4.86;100.00
19789;BME280;10054;59.332;18.244;2023-01-25T06:28:32;101408.80;;;4.88;100.00
19789;BME280;10054;59.332;18.244;2023-01-25T06:31:15;101411.83;;;4.89;100.00
19789;BME280;10054;59.332;18.244;2023-01-25T06:33:41;101417.50;;;4.88;100.00
19789;BME280;10054;59.332;18.244;2023-01-25T06:36:12;101420.53;;;4.89;100.00
19789;BME280;10054;59.332;18.244;2023-01-25T06:38:42;101423.96;;;4.91;100.00
19789;BME280;10054;59.332;18.244;2023-01-25T06:41:11;101409.21;;;4.89;100.00
19789;BME280;10054;59.332;18.244;2023-01-25T06:43:40;101414.44;;;4.89;100.00
19789;BME280;10054;59.332;18.244;2023-01-25T06:46:10;101413.50;;;4.91;100.00
19789;BME280;10054;59.332;18.244;2023-01-25T06:48:39;101408.27;;;4.91;100.00
19789;BME280;10054;59.332;18.244;2023-01-25T06:51:13;101408.72;;;4.91;100.00
19789;BME280;10054;59.332;18.244;2023-01-25T06:53:43;101398.30;;;4.89;100.00
19789;BME280;10054;59.332;18.244;2023-01-25T06:56:14;101404.35;;;4.91;100.00
19789;BME280;10054;59.332;18.244;2023-01-25T06:58:46;101402.19;;;4.91;100.00
19789;BME280;10054;59.332;18.244;2023-01-25T07:01:20;101396.18;;;4.87;100.00
19789;BME280;10054;59.332;18.244;2023-01-25T07:03:50;101386.99;;;4.89;100.00
19789;BME280;10054;59.332;18.244;2023-01-25T07:06:19;101374.28;;;4.91;100.00
19789;BME280;10054;59.332;18.244;2023-01-25T07:08:49;101374.69;;;4.92;100.00
19789;BME280;10054;59.332;18.244;2023-01-25T07:11:18;101379.06;;;4.92;100.00
19789;BME280;10054;59.332;18.244;2023-01-25T07:13:47;101382.50;;;4.94;100.00
19789;BME280;10054;59.332;18.244;2023-01-25T07:16:18;101378.08;;;4.96;100.00
19789;BME280;10054;59.332;18.244;2023-01-25T07:18:48;101372.45;;;4.95;100.00
19789;BME280;10054;59.332;18.244;2023-01-25T07:21:22;101380.25;;;4.97;100.00
19789;BME280;10054;59.332;18.244;2023-01-25T07:23:51;101374.48;;;5.00;100.00
19789;BME280;10054;59.332;18.244;2023-01-25T07:26:24;101371.46;;;4.99;100.00
19789;BME280;10054;59.332;18.244;2023-01-25T07:28:53;101372.41;;;4.97;100.00
19789;BME280;10054;59.332;18.244;2023-01-25T07:31:24;101373.67;;;4.98;100.00
19789;BME280;10054;59.332;18.244;2023-01-25T07:33:54;101372.69;;;5.02;100.00
19789;BME280;10054;59.332;18.244;2023-01-25T07:36:25;101366.96;;;5.04;100.00
19789;BME280;10054;59.332;18.244;2023-01-25T07:38:55;101362.59;;;5.05;100.00
19789;BME280;10054;59.332;18.244;2023-01-25T07:41:24;101368.64;;;5.07;100.00
19789;BME280;10054;59.332;18.244;2023-01-25T07:43:53;101359.89;;;5.08;100.00
19789;BME280;10054;59.332;18.244;2023-01-25T07:46:24;101362.59;;;5.05;100.00
19789;BME280;10054;59.332;18.244;2023-01-25T07:48:53;101368.64;;;5.07;100.00
19789;BME280;10054;59.332;18.244;2023-01-25T07:51:25;101364.55;;;5.13;100.00
19789;BME280;10054;59.332;18.244;2023-01-25T07:53:56;101359.67;;;5.15;100.00
19789;BME280;10054;59.332;18.244;2023-01-25T07:56:33;101360.09;;;5.16;100.00
19789;BME280;10054;59.332;18.244;2023-01-25T07:58:58;101356.52;;;5.19;100.00
19789;BME280;10054;59.332;18.244;2023-01-25T08:01:29;101358.98;;;5.23;100.00
19789;BME280;10054;59.332;18.244;2023-01-25T08:04:03;101365.02;;;5.25;100.00
19789;BME280;10054;59.332;18.244;2023-01-25T08:06:34;101358.08;;;5.24;100.00
19789;BME280;10054;59.332;18.244;2023-01-25T08:09:11;101350.55;;;5.28;100.00
19789;BME280;10054;59.332;18.244;2023-01-25T08:11:36;101348.34;;;5.29;100.00
19789;BME280;10054;59.332;18.244;2023-01-25T08:14:05;101351.77;;;5.32;100.00
19789;BME280;10054;59.332;18.244;2023-01-25T08:16:34;101347.34;;;5.34;100.00
19789;BME280;10054;59.332;18.244;2023-01-25T08:19:03;101334.63;;;5.36;100.00
19789;BME280;10054;59.332;18.244;2023-01-25T08:21:34;101336.34;;;5.37;100.00
19789;BME280;10054;59.332;18.244;2023-01-25T08:24:05;101334.13;;;5.38;100.00
19789;BME280;10054;59.332;18.244;2023-01-25T08:26:34;101329.25;;;5.41;100.00
19789;BME280;10054;59.332;18.244;2023-01-25T08:29:04;101328.31;;;5.43;100.00
19789;BME280;10054;59.332;18.244;2023-01-25T08:31:34;101320.86;;;5.44;100.00
19789;BME280;10054;59.332;18.244;2023-01-25T08:34:04;101311.20;;;5.46;100.00
19789;BME280;10054;59.332;18.244;2023-01-25T08:36:33;101304.58;;;5.49;100.00
19789;BME280;10054;59.332;18.244;2023-01-25T08:39:06;101316.89;;;5.46;100.00
19789;BME280;10054;59.332;18.244;2023-01-25T08:41:35;101301.09;;;5.49;100.00
19789;BME280;10054;59.332;18.244;2023-01-25T08:44:04;101301.01;;;5.52;100.00
19789;BME280;10054;59.332;18.244;2023-01-25T08:46:33;101293.56;;;5.53;100.00
19789;BME280;10054;59.332;18.244;2023-01-25T08:49:03;101286.16;;;5.52;100.00
19789;BME280;10054;59.332;18.244;2023-01-25T08:51:32;101289.59;;;5.54;100.00
19789;BME280;10054;59.332;18.244;2023-01-25T08:54:06;101285.16;;;5.56;100.00
19789;BME280;10054;59.332;18.244;2023-01-25T08:56:37;101284.30;;;5.56;100.00
19789;BME280;10054;59.332;18.244;2023-01-25T08:59:06;101299.55;;;5.56;100.00
19789;BME280;10054;59.332;18.244;2023-01-25T09:01:36;101294.68;;;5.59;100.00
19789;BME280;10054;59.332;18.244;2023-01-25T09:04:04;101296.34;;;5.61;100.00
19789;BME280;10054;59.332;18.244;2023-01-25T09:06:33;101288.99;;;5.59;100.00
19789;BME280;10054;59.332;18.244;2023-01-25T09:09:03;101299.37;;;5.63;100.00
19789;BME280;10054;59.332;18.244;2023-01-25T09:11:33;101284.06;;;5.64;100.00
19789;BME280;10054;59.332;18.244;2023-01-25T09:14:03;101285.78;;;5.65;100.00
19789;BME280;10054;59.332;18.244;2023-01-25T09:16:33;101291.02;;;5.65;100.00
19789;BME280;10054;59.332;18.244;2023-01-25T09:19:04;101289.20;;;5.67;100.00
19789;BME280;10054;59.332;18.244;2023-01-25T09:21:34;101293.09;;;5.68;100.00
19789;BME280;10054;59.332;18.244;2023-01-25T09:24:04;101291.83;;;5.67;100.00
19789;BME280;10054;59.332;18.244;2023-01-25T09:26:38;101288.70;;;5.69;100.00
19789;BME280;10054;59.332;18.244;2023-01-25T09:29:08;101284.73;;;5.70;100.00
19789;BME280;10054;59.332;18.244;2023-01-25T09:31:38;101288.20;;;5.71;100.00
19789;BME280;10054;59.332;18.244;2023-01-25T09:34:15;101276.38;;;5.72;100.00
19789;BME280;10054;59.332;18.244;2023-01-25T09:36:43;101270.23;;;5.73;100.00
19789;BME280;10054;59.332;18.244;2023-01-25T09:39:12;101274.97;;;5.75;100.00
19789;BME280;10054;59.332;18.244;2023-01-25T09:41:57;101272.00;;;5.73;100.00
19789;BME280;10054;59.332;18.244;2023-01-25T09:47:01;101275.27;;;5.79;100.00
19789;BME280;10054;59.332;18.244;2023-01-25T09:55:13;101267.83;;;5.80;100.00
19789;BME280;10054;59.332;18.244;2023-01-25T09:57:44;101264.30;;;5.81;100.00
19789;BME280;10054;59.332;18.244;2023-01-25T10:00:37;101257.91;;;5.77;100.00
19789;BME280;10054;59.332;18.244;2023-01-25T10:06:00;101256.29;;;5.73;100.00
19789;BME280;10054;59.332;18.244;2023-01-25T10:11:26;101239.22;;;5.74;100.00
19789;BME280;10054;59.332;18.244;2023-01-25T10:13:53;101225.69;;;5.75;100.00
19789;BME280;10054;59.332;18.244;2023-01-25T10:19:24;101219.94;;;5.77;100.00
19789;BME280;10054;59.332;18.244;2023-01-25T10:22:04;101226.84;;;5.79;100.00
19789;BME280;10054;59.332;18.244;2023-01-25T10:27:31;101219.73;;;5.83;100.00
19789;BME280;10054;59.332;18.244;2023-01-25T10:29:59;101217.88;;;5.86;100.00
19789;BME280;10054;59.332;18.244;2023-01-25T10:32:29;101216.05;;;5.90;100.00
19789;BME280;10054;59.332;18.244;2023-01-25T10:35:17;101217.66;;;5.94;100.00
19789;BME280;10054;59.332;18.244;2023-01-25T10:37:41;101207.04;;;5.97;100.00
19789;BME280;10054;59.332;18.244;2023-01-25T10:40:22;101212.13;;;6.02;100.00
19789;BME280;10054;59.332;18.244;2023-01-25T10:43:02;101199.33;;;6.06;100.00
19789;BME280;10054;59.332;18.244;2023-01-25T10:45:32;101197.61;;;6.05;100.00
19789;BME280;10054;59.332;18.244;2023-01-25T10:48:08;101195.80;;;6.07;100.00
19789;BME280;10054;59.332;18.244;2023-01-25T10:53:29;101182.94;;;6.12;100.00
19789;BME280;10054;59.332;18.244;2023-01-25T10:58:46;101165.00;;;6.13;100.00
19789;BME280;10054;59.332;18.244;2023-01-25T11:01:25;101159.20;;;6.17;100.00
19789;BME280;10054;59.332;18.244;2023-01-25T11:03:54;101149.63;;;6.16;100.00
19789;BME280;10054;59.332;18.244;2023-01-25T11:06:35;101161.02;;;6.15;100.00
19789;BME280;10054;59.332;18.244;2023-01-25T11:12:20;101153.96;;;6.17;100.00
19789;BME280;10054;59.332;18.244;2023-01-25T11:14:34;101146.61;;;6.15;100.00
19789;BME280;10054;59.332;18.244;2023-01-25T11:17:04;101152.25;;;6.16;100.00
19789;BME280;10054;59.332;18.244;2023-01-25T11:19:40;101141.72;;;6.17;100.00
19789;BME280;10054;59.332;18.244;2023-01-25T11:22:20;101144.00;;;6.15;100.00
19789;BME280;10054;59.332;18.244;2023-01-25T11:24:51;101136.70;;;6.11;100.00
19789;BME280;10054;59.332;18.244;2023-01-25T11:27:26;101137.09;;;6.12;100.00
19789;BME280;10054;59.332;18.244;2023-01-25T11:30:06;101137.05;;;6.14;100.00
19789;BME280;10054;59.332;18.244;2023-01-25T11:32:38;101128.90;;;6.10;100.00
19789;BME280;10054;59.332;18.244;2023-01-25T11:35:20;101123.20;;;6.10;100.00
19789;BME280;10054;59.332;18.244;2023-01-25T11:38:13;101122.69;;;6.12;100.00
19789;BME280;10054;59.332;18.244;2023-01-25T11:49:10;101114.44;;;6.11;100.00
19789;BME280;10054;59.332;18.244;2023-01-25T11:52:06;101101.34;;;6.11;100.00
19789;BME280;10054;59.332;18.244;2023-01-25T11:57:44;101093.48;;;6.11;100.00
19789;BME280;10054;59.332;18.244;2023-01-25T12:03:37;101095.36;;;6.08;100.00
19789;BME280;10054;59.332;18.244;2023-01-25T12:08:37;101096.14;;;5.98;100.00
19789;BME280;10054;59.332;18.244;2023-01-25T12:14:18;101088.94;;;5.93;100.00
19789;BME280;10054;59.332;18.244;2023-01-25T12:22:18;101082.34;;;5.81;100.00
19789;BME280;10054;59.332;18.244;2023-01-25T12:24:50;101100.02;;;5.75;100.00
19789;BME280;10054;59.332;18.244;2023-01-25T12:27:30;101096.71;;;5.70;100.00
19789;BME280;10054;59.332;18.244;2023-01-25T12:32:58;101103.06;;;5.63;100.00
19789;BME280;10054;59.332;18.244;2023-01-25T12:35:39;101092.35;;;5.57;100.00
19789;BME280;10054;59.332;18.244;2023-01-25T12:38:18;101102.02;;;5.55;100.00
19789;BME280;10054;59.332;18.244;2023-01-25T12:40:54;101099.11;;;5.51;100.00
19789;BME280;10054;59.332;18.244;2023-01-25T12:43:32;101096.64;;;5.46;100.00
19789;BME280;10054;59.332;18.244;2023-01-25T12:46:26;101103.28;;;5.43;100.00
19789;BME280;10054;59.332;18.244;2023-01-25T12:48:35;101107.27;;;5.42;100.00
19789;BME280;10054;59.332;18.244;2023-01-25T12:51:04;101106.05;;;5.39;100.00
19789;BME280;10054;59.332;18.244;2023-01-25T12:53:35;101113.15;;;5.35;100.00
19789;BME280;10054;59.332;18.244;2023-01-25T12:56:26;101110.98;;;5.35;100.00
19789;BME280;10054;59.332;18.244;2023-01-25T13:06:40;101098.16;;;5.27;100.00
19789;BME280;10054;59.332;18.244;2023-01-25T13:09:14;101092.62;;;5.23;100.00
19789;BME280;10054;59.332;18.244;2023-01-25T13:11:44;101098.44;;;5.19;100.00
19789;BME280;10054;59.332;18.244;2023-01-25T13:14:24;101092.36;;;5.19;100.00
19789;BME280;10054;59.332;18.244;2023-01-25T13:16:52;101088.88;;;5.18;100.00
19789;BME280;10054;59.332;18.244;2023-01-25T13:21:59;101084.26;;;5.13;100.00
19789;BME280;10054;59.332;18.244;2023-01-25T13:24:33;101075.05;;;5.15;100.00
19789;BME280;10054;59.332;18.244;2023-01-25T13:27:08;101072.59;;;5.10;100.00
19789;BME280;10054;59.332;18.244;2023-01-25T13:34:57;101063.13;;;5.06;100.00
19789;BME280;10054;59.332;18.244;2023-01-25T13:37:28;101057.05;;;5.06;100.00
19789;BME280;10054;59.332;18.244;2023-01-25T13:40:05;101058.36;;;5.06;100.00
19789;BME280;10054;59.332;18.244;2023-01-25T13:42:36;101054.08;;;5.03;100.00
19789;BME280;10054;59.332;18.244;2023-01-25T13:45:16;101047.14;;;5.02;100.00
19789;BME280;10054;59.332;18.244;2023-01-25T13:47:58;101050.21;;;5.02;100.00
19789;BME280;10054;59.332;18.244;2023-01-25T13:50:31;101051.11;;;5.01;100.00
19789;BME280;10054;59.332;18.244;2023-01-25T13:55:51;101038.04;;;5.01;100.00
19789;BME280;10054;59.332;18.244;2023-01-25T14:01:03;101035.07;;;4.98;100.00
19789;BME280;10054;59.332;18.244;2023-01-25T14:03:40;101038.59;;;4.97;100.00
19789;BME280;10054;59.332;18.244;2023-01-25T14:06:23;101033.31;;;4.99;100.00
19789;BME280;10054;59.332;18.244;2023-01-25T14:08:55;101021.15;;;4.98;100.00
19789;BME280;10054;59.332;18.244;2023-01-25T14:11:27;101017.28;;;4.96;100.00
19789;BME280;10054;59.332;18.244;2023-01-25T14:14:23;101017.67;;;4.97;100.00
19789;BME280;10054;59.332;18.244;2023-01-25T14:16:33;101013.00;;;4.93;100.00
19789;BME280;10054;59.332;18.244;2023-01-25T14:19:24;101016.97;;;4.92;100.00
19789;BME280;10054;59.332;18.244;2023-01-25T14:25:04;101014.77;;;4.93;100.00
19789;BME280;10054;59.332;18.244;2023-01-25T14:27:42;101006.11;;;4.91;100.00
19789;BME280;10054;59.332;18.244;2023-01-25T14:30:20;101002.14;;;4.92;100.00
19789;BME280;10054;59.332;18.244;2023-01-25T14:32:51;100990.83;;;4.92;100.00